CheckWX is a tool to help pilots better visualize weather data.  It is not intended as a substitute for an official pre-flight weather briefing.

14:16:51 UTC

65S METAR
Boundary County Airport
Bonners Ferry, Idaho, USA
Current

22 mins ago

K65S 151355Z AUTO 00000KT 10SM FEW008 09/09 A2981 RMK AO2
Observed
Sep-15 @ 13:55 UTC
Visibility
10 SM
Flight Rules
VFR
Cloud Levels
  • Few at 800' AGL
Temperature
C / 48°F
Dewpoint
C / 48°F
Humidity
100%
Altimeter
29.81" Hg
Pressure
1009.52 hPa
Previous

42 mins ago

K65S 151335Z AUTO 00000KT 3/4SM BR BKN008 BKN013 08/08 A2981 RMK AO2
Observed
Sep-15 @ 13:35 UTC
Visibility
3/4 SM
Flight Rules
LIFR
Conditions
Mist
Cloud Levels
  • Broken at 800' AGL
  • Broken at 1,300' AGL
Temperature
C / 46°F
Dewpoint
C / 46°F
Humidity
100%
Altimeter
29.81" Hg
Pressure
1009.52 hPa
Previous

1 hour ago

K65S 151315Z AUTO 00000KT 1 1/4SM BR SCT002 BKN013 08/08 A2981 RMK AO2
Observed
Sep-15 @ 13:15 UTC
Visibility
1 1/4 SM
Flight Rules
IFR
Conditions
Mist
Cloud Levels
  • Scattered at 200' AGL
  • Broken at 1,300' AGL
Temperature
C / 46°F
Dewpoint
C / 46°F
Humidity
100%
Altimeter
29.81" Hg
Pressure
1009.52 hPa